Pensacola, Oklahoma
Current Conditions -  °F | °C
As of 8:15 AM on Sunday 25 Jan 2015 (Local Time) from KGMJ Reporting Station
Overcast Overcast  
Wind Chill: 50°   Ceiling: 4600
Heat Index: 50°   Visibility: 10mi
Dew Point: 34°   Wind: 8mph
Humidity: 54%   Direction: 270°W
Pressure: 29.8"   Gusts: NA
Location:  36.6347°N, 95.0928°W
Report Text: KGMJ 251415Z AUTO 27007KT 10SM OVC046 10/01 A2980 RMK AO2
Loading
Personal Weather Stations






























Interactive Weather Map New forecast layout! Learn more

10-Day Weather Forecast

Advertisements
Track Severe Weather on mobile